Time;durP1;ratioP1;P1;durP2;ratioP2;P2;SDS_P1;SDS_P2;PMS_P1;PMS_P2;Temp;Humidity;BMP_temperature;BMP_pressure;BME280_temperature;BME280_humidity;BME280_pressure;Samples;Min_cycle;Max_cycle;Signal;HPM_P1;HPM_P2
2021/08/28 00:01:01;;;;;;;10.75;3.83;;;17.40;91.40;;;;;;4944399;28;20047;-71
2021/08/28 00:03:27;;;;;;;9.30;3.72;;;17.40;91.40;;;;;;4949601;28;20069;-70
2021/08/28 00:05:52;;;;;;;7.40;3.60;;;17.40;91.30;;;;;;4949412;28;20066;-71
2021/08/28 00:08:18;;;;;;;7.05;3.00;;;17.40;91.30;;;;;;4963167;28;20039;-71
2021/08/28 00:10:45;;;;;;;10.77;3.90;;;17.40;91.30;;;;;;4960963;28;20046;-71
2021/08/28 00:13:12;;;;;;;19.10;3.53;;;17.40;91.20;;;;;;4948739;28;20095;-71
2021/08/28 00:15:38;;;;;;;6.63;2.60;;;17.40;91.30;;;;;;4961915;28;20043;-70
2021/08/28 00:18:04;;;;;;;7.38;3.05;;;17.40;91.50;;;;;;4944495;28;20051;-71
2021/08/28 00:20:30;;;;;;;9.05;3.10;;;17.40;91.30;;;;;;4943416;28;20453;-71
2021/08/28 00:22:56;;;;;;;12.57;2.90;;;17.40;91.20;;;;;;4947237;28;20043;-71
2021/08/28 00:25:22;;;;;;;9.25;3.88;;;17.40;91.20;;;;;;4961684;28;22250;-71
2021/08/28 00:27:47;;;;;;;13.00;3.42;;;17.30;91.10;;;;;;4947500;28;20634;-71
2021/08/28 00:30:14;;;;;;;11.55;3.65;;;17.30;91.10;;;;;;4947883;28;20054;-70
2021/08/28 00:32:40;;;;;;;8.90;3.25;;;17.30;91.10;;;;;;4944693;28;20047;-71
2021/08/28 00:35:06;;;;;;;10.43;3.88;;;17.30;91.10;;;;;;4947741;28;20051;-71
2021/08/28 00:37:32;;;;;;;9.68;4.07;;;17.30;91.10;;;;;;4960957;28;20058;-72
2021/08/28 00:39:58;;;;;;;11.98;3.30;;;17.30;91.10;;;;;;4944832;28;20047;-72
2021/08/28 00:42:25;;;;;;;7.72;3.70;;;17.30;91.10;;;;;;4962109;28;20443;-71
2021/08/28 00:44:52;;;;;;;10.43;3.78;;;17.30;91.10;;;;;;4960059;28;20553;-71
2021/08/28 00:47:21;;;;;;;10.73;3.30;;;17.20;91.10;;;;;;4930151;28;20093;-70
2021/08/28 00:49:48;;;;;;;10.48;4.20;;;17.20;91.10;;;;;;4961007;28;20395;-71
2021/08/28 00:52:15;;;;;;;7.55;4.07;;;17.30;91.30;;;;;;4943028;28;20086;-71
2021/08/28 00:54:41;;;;;;;9.75;3.13;;;17.20;91.20;;;;;;4947846;28;20550;-71
2021/08/28 00:57:11;;;;;;;9.98;3.53;;;17.20;91.40;;;;;;4957850;28;20051;-72
2021/08/28 00:59:41;;;;;;;7.10;3.20;;;17.20;91.10;;;;;;4960686;28;20038;-71
2021/08/28 01:02:08;;;;;;;11.00;3.47;;;17.20;91.10;;;;;;4928036;28;20537;-71
2021/08/28 01:05:00;;;;;;;6.22;2.80;;;17.20;91.10;;;;;;4942254;28;20070;-71
2021/08/28 01:07:45;;;;;;;6.55;2.67;;;17.20;91.10;;;;;;4960178;28;20042;-72
2021/08/28 01:10:15;;;;;;;7.78;2.85;;;17.20;91.10;;;;;;4943908;28;20063;-72
2021/08/28 01:12:46;;;;;;;8.05;2.65;;;17.20;91.20;;;;;;4961824;28;20038;-71
2021/08/28 01:15:15;;;;;;;10.10;2.45;;;17.20;90.90;;;;;;4943716;28;20043;-71
2021/08/28 01:17:45;;;;;;;11.13;3.10;;;17.20;91.00;;;;;;4943391;28;20042;-72
2021/08/28 01:20:45;;;;;;;9.32;2.40;;;17.20;91.10;;;;;;4942521;28;20248;-71
2021/08/28 01:23:12;;;;;;;8.77;2.47;;;17.20;91.00;;;;;;4941250;28;20054;-72
2021/08/28 01:25:42;;;;;;;6.55;2.00;;;17.10;91.00;;;;;;4943268;28;20055;-72
2021/08/28 01:28:10;;;;;;;7.95;2.55;;;17.10;91.40;;;;;;4960388;28;20101;-72
2021/08/28 01:30:38;;;;;;;7.88;2.65;;;17.10;91.40;;;;;;4942224;28;20050;-71
2021/08/28 01:33:05;;;;;;;8.82;2.88;;;17.20;91.60;;;;;;4959317;28;20042;-71
2021/08/28 01:35:31;;;;;;;8.55;2.72;;;17.20;91.60;;;;;;4942547;28;20094;-71
2021/08/28 01:37:58;;;;;;;11.07;2.83;;;17.20;91.70;;;;;;4960375;28;20041;-72
2021/08/28 01:40:27;;;;;;;8.98;2.70;;;17.20;91.50;;;;;;4943188;28;20138;-71
2021/08/28 01:42:53;;;;;;;6.18;2.70;;;17.20;91.40;;;;;;4960856;28;20035;-72
2021/08/28 01:45:25;;;;;;;7.88;2.63;;;17.20;91.30;;;;;;4943354;28;20129;-72
2021/08/28 01:47:52;;;;;;;9.50;3.20;;;17.30;91.40;;;;;;4943257;28;20043;-71
2021/08/28 01:50:21;;;;;;;8.13;3.20;;;17.30;91.40;;;;;;4960518;28;20136;-63
2021/08/28 01:52:49;;;;;;;14.30;3.17;;;17.30;91.30;;;;;;4961078;28;20113;-63
2021/08/28 01:55:15;;;;;;;10.48;3.67;;;17.20;91.40;;;;;;4960181;28;20400;-62
2021/08/28 01:57:42;;;;;;;17.55;3.90;;;17.20;91.30;;;;;;4925561;28;20046;-63
2021/08/28 02:00:08;;;;;;;8.80;3.38;;;17.30;91.20;;;;;;4946931;28;20050;-63
2021/08/28 02:02:33;;;;;;;11.93;3.88;;;17.20;91.20;;;;;;4945666;28;20055;-63
2021/08/28 02:05:00;;;;;;;8.65;3.55;;;17.20;91.10;;;;;;4946250;28;20128;-63
2021/08/28 02:07:39;;;;;;;8.10;3.58;;;17.20;91.00;;;;;;4943543;28;20046;-62
2021/08/28 02:10:16;;;;;;;15.07;4.85;;;17.20;91.00;;;;;;4941798;28;20055;-63
2021/08/28 02:12:44;;;;;;;9.23;3.65;;;17.20;91.00;;;;;;4942195;28;20183;-62
2021/08/28 02:15:19;;;;;;;10.40;3.83;;;17.20;91.10;;;;;;4960191;28;20047;-63
2021/08/28 02:17:54;;;;;;;6.20;4.03;;;17.20;91.10;;;;;;4945259;28;20042;-62
2021/08/28 02:20:23;;;;;;;9.60;4.55;;;17.20;91.30;;;;;;4945946;28;20051;-62
2021/08/28 02:22:50;;;;;;;11.60;4.00;;;17.20;91.40;;;;;;4942738;28;20055;-63
2021/08/28 02:25:36;;;;;;;11.82;4.60;;;17.20;91.30;;;;;;4931589;28;20047;-63
2021/08/28 02:28:07;;;;;;;11.85;4.30;;;17.20;91.30;;;;;;4946360;28;20574;-63
2021/08/28 02:30:34;;;;;;;11.55;4.40;;;17.20;91.30;;;;;;4942395;28;20046;-62
2021/08/28 02:33:05;;;;;;;14.55;4.63;;;17.20;91.20;;;;;;4946193;28;20140;-62
2021/08/28 02:35:32;;;;;;;12.35;4.38;;;17.30;91.30;;;;;;4960604;28;20055;-62
2021/08/28 02:37:59;;;;;;;17.80;5.07;;;17.30;91.30;;;;;;4941066;28;20051;-62
2021/08/28 02:40:27;;;;;;;20.25;5.18;;;17.20;91.30;;;;;;4958911;28;20123;-63
2021/08/28 02:42:54;;;;;;;11.63;4.93;;;17.20;91.50;;;;;;4941844;28;20062;-62
2021/08/28 02:45:28;;;;;;;15.48;5.05;;;17.20;91.50;;;;;;4959139;28;20231;-63
2021/08/28 02:47:54;;;;;;;10.35;4.00;;;17.20;91.30;;;;;;4946686;28;20705;-63
2021/08/28 02:50:23;;;;;;;14.80;4.18;;;17.20;91.30;;;;;;4946476;28;20054;-70
2021/08/28 02:52:50;;;;;;;19.17;4.95;;;17.20;91.40;;;;;;4946872;28;20051;-70
2021/08/28 02:55:18;;;;;;;25.15;5.15;;;17.20;91.70;;;;;;4958276;28;20046;-70
2021/08/28 02:57:47;;;;;;;24.05;5.75;;;17.10;91.90;;;;;;4945786;28;20123;-70
2021/08/28 03:00:16;;;;;;;11.57;4.03;;;17.00;92.10;;;;;;4941172;28;20059;-70
2021/08/28 03:02:42;;;;;;;15.38;5.22;;;17.00;92.20;;;;;;4942773;28;20038;-70
2021/08/28 03:05:12;;;;;;;15.38;4.43;;;17.00;92.30;;;;;;4941363;28;20503;-70
2021/08/28 03:07:39;;;;;;;14.77;4.68;;;17.00;92.30;;;;;;4946312;28;20483;-71
2021/08/28 03:10:08;;;;;;;11.23;4.05;;;17.00;92.30;;;;;;4942151;28;21125;-71
2021/08/28 03:12:34;;;;;;;10.80;3.72;;;17.00;92.20;;;;;;4960105;28;20407;-72
2021/08/28 03:14:59;;;;;;;18.88;5.65;;;17.00;92.10;;;;;;4960964;28;20050;-71
2021/08/28 03:17:28;;;;;;;13.73;4.18;;;17.00;92.00;;;;;;4959533;28;20073;-71
2021/08/28 03:19:56;;;;;;;13.25;3.78;;;17.00;92.10;;;;;;4942884;28;20145;-70
2021/08/28 03:22:23;;;;;;;15.50;4.35;;;17.00;92.10;;;;;;4960124;28;20046;-71
2021/08/28 03:24:51;;;;;;;14.18;4.13;;;17.00;92.10;;;;;;4941754;28;20136;-71
2021/08/28 03:27:19;;;;;;;11.20;4.30;;;17.00;92.10;;;;;;4944228;28;20133;-71
2021/08/28 03:29:46;;;;;;;10.07;4.07;;;17.00;92.20;;;;;;4958045;28;20132;-71
2021/08/28 03:32:14;;;;;;;12.90;4.97;;;17.00;92.10;;;;;;4962586;28;20455;-71
2021/08/28 03:34:40;;;;;;;8.52;4.03;;;17.00;92.20;;;;;;4947562;28;20483;-71
2021/08/28 03:37:07;;;;;;;14.60;4.40;;;17.00;92.20;;;;;;4962839;28;20126;-70
2021/08/28 03:39:33;;;;;;;12.30;4.05;;;17.00;92.00;;;;;;4944542;28;20089;-70
2021/08/28 03:41:58;;;;;;;11.65;4.25;;;17.00;92.00;;;;;;4945023;28;20066;-70
2021/08/28 03:44:24;;;;;;;11.55;4.43;;;17.00;91.90;;;;;;4945438;28;20054;-70
2021/08/28 03:46:50;;;;;;;13.88;4.38;;;17.00;91.90;;;;;;4959818;28;20047;-71
2021/08/28 03:49:16;;;;;;;12.23;4.35;;;17.00;91.90;;;;;;4945590;28;20043;-70
2021/08/28 03:51:43;;;;;;;9.20;3.70;;;17.00;91.80;;;;;;4949693;28;20653;-71
2021/08/28 03:54:08;;;;;;;18.15;4.95;;;17.10;91.80;;;;;;4949180;28;20054;-71
2021/08/28 03:56:35;;;;;;;14.43;4.25;;;17.10;91.80;;;;;;4962160;28;20043;-70
2021/08/28 03:59:01;;;;;;;10.38;3.55;;;17.10;91.80;;;;;;4948159;28;20108;-70
2021/08/28 04:01:26;;;;;;;12.18;4.40;;;17.10;91.70;;;;;;4949367;28;20069;-69
2021/08/28 04:03:52;;;;;;;10.75;4.10;;;17.10;91.70;;;;;;4945925;28;20137;-70
2021/08/28 04:06:18;;;;;;;9.82;3.80;;;17.10;91.70;;;;;;4962127;28;20118;-70
2021/08/28 04:08:48;;;;;;;11.35;4.68;;;17.10;91.70;;;;;;4944192;28;20410;-70
2021/08/28 04:11:15;;;;;;;16.25;4.85;;;17.10;91.80;;;;;;4949048;28;20054;-70
2021/08/28 04:13:41;;;;;;;10.18;3.75;;;17.10;91.70;;;;;;4928812;28;22276;-70
2021/08/28 04:16:07;;;;;;;11.63;3.85;;;17.10;91.70;;;;;;4944953;28;20668;-70
2021/08/28 04:18:32;;;;;;;11.57;3.95;;;17.10;91.70;;;;;;4961837;28;20035;-70
2021/08/28 04:20:58;;;;;;;7.75;3.83;;;17.10;91.70;;;;;;4948246;28;20042;-72
2021/08/28 04:23:24;;;;;;;17.55;4.80;;;17.10;91.60;;;;;;4948398;28;20047;-69
2021/08/28 04:25:49;;;;;;;8.90;3.85;;;17.10;91.60;;;;;;4945975;28;20054;-61
2021/08/28 04:28:15;;;;;;;11.55;4.38;;;17.10;91.60;;;;;;4960489;28;20624;-61
2021/08/28 04:30:41;;;;;;;9.90;4.05;;;17.10;91.60;;;;;;4942605;28;20055;-61
2021/08/28 04:33:07;;;;;;;16.25;4.60;;;17.10;91.70;;;;;;4948764;28;20043;-61
2021/08/28 04:35:34;;;;;;;9.60;4.10;;;17.10;91.70;;;;;;4944159;28;20062;-61
2021/08/28 04:38:00;;;;;;;9.95;3.70;;;17.10;91.60;;;;;;4948278;28;20058;-62
2021/08/28 04:40:25;;;;;;;10.82;3.92;;;17.10;91.30;;;;;;4933410;28;20050;-61
2021/08/28 04:42:52;;;;;;;9.45;3.53;;;17.10;91.30;;;;;;4951051;28;20045;-62
2021/08/28 04:45:18;;;;;;;10.85;3.42;;;17.10;91.40;;;;;;4947997;28;20057;-62
2021/08/28 04:47:44;;;;;;;11.38;3.70;;;17.10;91.40;;;;;;4944392;28;20058;-62
2021/08/28 04:50:11;;;;;;;11.13;3.63;;;17.10;91.50;;;;;;4960602;28;20598;-63
2021/08/28 04:52:36;;;;;;;9.85;4.13;;;17.10;91.60;;;;;;4958963;28;20137;-62
2021/08/28 04:55:03;;;;;;;10.43;3.65;;;17.10;91.60;;;;;;4931359;28;20054;-62
2021/08/28 04:57:28;;;;;;;13.45;4.20;;;17.10;91.60;;;;;;4944568;28;20043;-62
2021/08/28 04:59:54;;;;;;;10.35;3.42;;;17.10;91.70;;;;;;4948339;28;20042;-62
2021/08/28 05:02:20;;;;;;;11.35;3.63;;;17.10;91.70;;;;;;4932440;28;20046;-62
2021/08/28 05:04:45;;;;;;;13.23;4.07;;;17.10;91.80;;;;;;4930881;28;20061;-62
2021/08/28 05:07:11;;;;;;;12.45;3.92;;;17.10;91.90;;;;;;4946999;28;20048;-63
2021/08/28 05:09:37;;;;;;;12.38;3.80;;;17.10;91.80;;;;;;4958864;28;21882;-62
2021/08/28 05:12:03;;;;;;;15.93;4.40;;;17.10;91.70;;;;;;4943813;28;20035;-62
2021/08/28 05:14:28;;;;;;;15.73;3.78;;;17.10;91.60;;;;;;4942982;28;20430;-62
2021/08/28 05:16:54;;;;;;;11.15;3.60;;;17.10;91.70;;;;;;4947966;28;20053;-62
2021/08/28 05:19:20;;;;;;;13.00;4.47;;;17.10;91.80;;;;;;4943043;28;20051;-62
2021/08/28 05:21:46;;;;;;;11.10;4.03;;;17.20;92.00;;;;;;4931365;28;20050;-62
2021/08/28 05:24:13;;;;;;;11.13;4.22;;;17.20;91.80;;;;;;4945512;28;20047;-62
2021/08/28 05:26:39;;;;;;;11.90;3.83;;;17.20;91.80;;;;;;4960846;28;20058;-62
2021/08/28 05:29:05;;;;;;;17.35;4.63;;;17.20;91.80;;;;;;4960419;28;20125;-62
2021/08/28 05:31:31;;;;;;;12.02;4.45;;;17.20;91.80;;;;;;4959512;28;20835;-64
2021/08/28 05:33:58;;;;;;;12.25;4.65;;;17.20;91.80;;;;;;4947192;28;20747;-61
2021/08/28 05:36:23;;;;;;;14.23;4.20;;;17.20;91.70;;;;;;4947069;28;20053;-61
2021/08/28 05:38:50;;;;;;;12.85;3.90;;;17.20;91.60;;;;;;4941954;28;20046;-62
2021/08/28 05:41:16;;;;;;;11.32;3.30;;;17.20;91.40;;;;;;4930743;28;20153;-61
2021/08/28 05:43:41;;;;;;;12.32;3.83;;;17.20;91.20;;;;;;4931128;28;20046;-63
2021/08/28 05:46:07;;;;;;;12.68;4.00;;;17.20;91.00;;;;;;4947709;28;20089;-62
2021/08/28 05:48:33;;;;;;;11.80;3.40;;;17.20;90.90;;;;;;4945640;28;20054;-63
2021/08/28 05:50:58;;;;;;;11.65;4.07;;;17.20;90.90;;;;;;4943236;28;20057;-63
2021/08/28 05:53:24;;;;;;;8.95;3.38;;;17.20;90.80;;;;;;4960272;28;20050;-62
2021/08/28 05:55:50;;;;;;;10.07;3.75;;;17.20;90.70;;;;;;4959305;28;20058;-59
2021/08/28 05:58:15;;;;;;;10.63;4.22;;;17.20;90.60;;;;;;4961125;28;20445;-59
2021/08/28 06:00:41;;;;;;;8.38;3.70;;;17.20;90.60;;;;;;4960581;28;20515;-59
2021/08/28 06:03:07;;;;;;;8.60;3.33;;;17.20;90.50;;;;;;4959817;28;20057;-60
2021/08/28 06:05:33;;;;;;;8.60;2.95;;;17.20;90.30;;;;;;4943847;28;20590;-58
2021/08/28 06:07:58;;;;;;;8.50;3.33;;;17.20;90.20;;;;;;4960024;28;20137;-59
2021/08/28 06:10:24;;;;;;;9.13;3.40;;;17.20;90.00;;;;;;4959779;28;20039;-59
2021/08/28 06:12:50;;;;;;;11.13;3.35;;;17.20;89.80;;;;;;4960765;28;20045;-60
2021/08/28 06:15:16;;;;;;;8.45;3.85;;;17.20;89.50;;;;;;4940692;28;20039;-60
2021/08/28 06:17:41;;;;;;;11.52;3.50;;;17.20;89.50;;;;;;4946342;28;22228;-60
2021/08/28 06:20:08;;;;;;;8.30;3.17;;;17.20;89.20;;;;;;4959967;28;20101;-59
2021/08/28 06:22:33;;;;;;;9.30;3.35;;;17.10;89.30;;;;;;4947111;28;20042;-59
2021/08/28 06:24:59;;;;;;;8.88;3.63;;;17.10;89.60;;;;;;4942142;28;20043;-60
2021/08/28 06:27:25;;;;;;;12.38;3.53;;;17.20;90.00;;;;;;4961434;28;20779;-60
2021/08/28 06:29:50;;;;;;;10.48;3.40;;;17.20;90.20;;;;;;4958446;28;21074;-61
2021/08/28 06:32:16;;;;;;;12.52;3.33;;;17.20;90.50;;;;;;4929951;28;20117;-60
2021/08/28 06:34:42;;;;;;;9.23;3.35;;;17.20;90.70;;;;;;4959490;28;20070;-63
2021/08/28 06:37:07;;;;;;;8.55;3.30;;;17.20;90.80;;;;;;4942047;28;20054;-60
2021/08/28 06:39:33;;;;;;;15.00;3.88;;;17.20;90.70;;;;;;4960825;28;20159;-60
2021/08/28 06:41:59;;;;;;;11.73;3.17;;;17.20;91.00;;;;;;4942127;28;20109;-60
2021/08/28 06:44:24;;;;;;;10.77;3.80;;;17.30;90.80;;;;;;4959048;28;20177;-60
2021/08/28 06:46:50;;;;;;;9.05;3.42;;;17.30;90.70;;;;;;4960190;28;20046;-60
2021/08/28 06:49:16;;;;;;;12.07;3.08;;;17.30;90.70;;;;;;4942116;28;20505;-60
2021/08/28 06:51:42;;;;;;;12.68;3.35;;;17.40;90.60;;;;;;4959728;28;21195;-60
2021/08/28 06:54:07;;;;;;;10.95;4.85;;;17.40;90.60;;;;;;4959064;28;20530;-60
2021/08/28 06:56:33;;;;;;;11.13;3.40;;;17.50;90.70;;;;;;4959134;28;20031;-60
2021/08/28 06:58:59;;;;;;;7.70;2.95;;;17.50;90.70;;;;;;4959053;28;20050;-61
2021/08/28 07:01:24;;;;;;;10.95;3.35;;;17.50;90.60;;;;;;4959185;28;20039;-61
2021/08/28 07:03:50;;;;;;;10.68;3.35;;;17.50;90.30;;;;;;4959089;28;20043;-61
2021/08/28 07:06:16;;;;;;;10.02;3.58;;;17.50;90.20;;;;;;4959790;28;20086;-61
2021/08/28 07:08:41;;;;;;;11.85;3.53;;;17.60;90.00;;;;;;4962288;28;20047;-61
2021/08/28 07:11:07;;;;;;;9.90;3.10;;;17.60;90.10;;;;;;4962112;28;20090;-61
2021/08/28 07:13:33;;;;;;;10.35;3.42;;;17.70;90.50;;;;;;4962786;28;20600;-61
2021/08/28 07:15:59;;;;;;;8.38;3.22;;;17.70;90.20;;;;;;4962908;28;20545;-61
2021/08/28 07:18:25;;;;;;;12.35;2.97;;;17.70;90.00;;;;;;4961742;28;20113;-61
2021/08/28 07:20:52;;;;;;;11.88;3.00;;;17.80;89.70;;;;;;4962940;28;20042;-61
2021/08/28 07:23:17;;;;;;;7.20;2.60;;;17.90;89.20;;;;;;4961799;28;20058;-61
2021/08/28 07:25:43;;;;;;;8.85;2.80;;;18.20;88.90;;;;;;4962060;28;20042;-61
2021/08/28 07:28:11;;;;;;;10.18;2.78;;;18.50;87.70;;;;;;4962130;28;20047;-61
2021/08/28 07:30:37;;;;;;;10.45;2.85;;;18.80;86.50;;;;;;4961574;28;20081;-61
2021/08/28 07:33:03;;;;;;;12.80;2.75;;;19.00;85.60;;;;;;4961306;28;20039;-60
2021/08/28 07:35:31;;;;;;;9.07;2.50;;;19.20;84.60;;;;;;4961927;28;20050;-62
2021/08/28 07:37:57;;;;;;;6.10;2.55;;;19.40;84.70;;;;;;4961353;28;20074;-61
2021/08/28 07:40:23;;;;;;;6.90;2.38;;;19.60;83.10;;;;;;4961189;28;20178;-62
2021/08/28 07:42:54;;;;;;;6.35;2.50;;;19.90;82.40;;;;;;4943835;28;20055;-62
2021/08/28 07:45:21;;;;;;;6.80;2.20;;;20.10;81.10;;;;;;4945211;28;20055;-61
2021/08/28 07:47:46;;;;;;;11.88;3.15;;;20.20;80.60;;;;;;4962672;28;20067;-61
2021/08/28 07:50:13;;;;;;;10.55;2.78;;;20.20;79.90;;;;;;4960151;28;20155;-62
2021/08/28 07:52:42;;;;;;;6.70;2.45;;;20.20;79.50;;;;;;4944301;28;20057;-62
2021/08/28 07:55:10;;;;;;;10.00;2.47;;;20.10;79.30;;;;;;4949007;28;20050;-61
2021/08/28 07:57:36;;;;;;;8.05;2.40;;;20.00;79.70;;;;;;4944867;28;20114;-61
2021/08/28 08:00:07;;;;;;;7.60;2.28;;;19.90;80.40;;;;;;4928317;28;20043;-61
2021/08/28 08:02:32;;;;;;;7.47;2.03;;;19.80;80.70;;;;;;4961832;28;20043;-60
2021/08/28 08:04:58;;;;;;;11.82;2.55;;;19.60;80.10;;;;;;4960794;28;20042;-61
2021/08/28 08:07:24;;;;;;;4.32;1.80;;;19.50;80.00;;;;;;4960962;28;20054;-60
2021/08/28 08:09:50;;;;;;;6.05;2.45;;;19.50;80.40;;;;;;4962172;28;20150;-60
2021/08/28 08:12:15;;;;;;;7.45;2.28;;;19.40;80.80;;;;;;4947855;28;20038;-59
2021/08/28 08:14:41;;;;;;;7.38;1.85;;;19.40;80.80;;;;;;4960336;28;20066;-60
2021/08/28 08:17:07;;;;;;;8.32;2.08;;;19.40;81.00;;;;;;4961035;28;20050;-60
2021/08/28 08:19:33;;;;;;;8.52;3.00;;;19.60;81.10;;;;;;4962037;28;20492;-60
2021/08/28 08:21:58;;;;;;;6.78;1.85;;;19.80;80.90;;;;;;4961339;28;20042;-62
2021/08/28 08:24:24;;;;;;;7.10;1.88;;;19.90;80.10;;;;;;4960770;28;20042;-59
2021/08/28 08:26:50;;;;;;;8.57;2.60;;;19.80;79.50;;;;;;4948377;28;20043;-60
2021/08/28 08:29:16;;;;;;;5.20;2.00;;;19.70;79.90;;;;;;4962099;28;20631;-58
2021/08/28 08:31:41;;;;;;;7.22;2.03;;;19.70;79.90;;;;;;4960672;28;20035;-58
2021/08/28 08:34:07;;;;;;;8.57;2.10;;;19.50;80.00;;;;;;4960535;28;20499;-58
2021/08/28 08:36:33;;;;;;;7.07;1.98;;;19.40;80.60;;;;;;4960916;28;20054;-58
2021/08/28 08:38:59;;;;;;;6.50;1.88;;;19.30;80.40;;;;;;4962156;28;20042;-58
2021/08/28 08:41:25;;;;;;;4.47;1.60;;;19.10;80.50;;;;;;4961981;28;20421;-58
2021/08/28 08:43:53;;;;;;;6.38;2.28;;;19.10;80.50;;;;;;4961509;28;20779;-58
2021/08/28 08:46:21;;;;;;;3.10;1.58;;;19.00;80.80;;;;;;4962078;28;20049;-58
2021/08/28 08:48:48;;;;;;;8.05;2.00;;;19.00;81.60;;;;;;4948740;28;20055;-62
2021/08/28 08:51:15;;;;;;;5.65;1.45;;;19.00;82.20;;;;;;4959495;28;20399;-64
2021/08/28 08:53:41;;;;;;;8.30;1.88;;;19.00;81.60;;;;;;4931985;28;20042;-62
2021/08/28 08:56:07;;;;;;;10.23;2.08;;;18.90;81.40;;;;;;4943184;28;20055;-62
2021/08/28 08:58:34;;;;;;;7.78;2.20;;;18.90;81.90;;;;;;4960665;28;20050;-63
2021/08/28 09:01:03;;;;;;;13.68;3.13;;;18.80;82.10;;;;;;4942281;28;20051;-64
2021/08/28 09:03:29;;;;;;;5.57;1.70;;;18.80;81.90;;;;;;4959945;28;20039;-67
2021/08/28 09:05:55;;;;;;;7.28;2.20;;;18.80;81.90;;;;;;4947510;28;20093;-62
2021/08/28 09:08:21;;;;;;;7.90;1.85;;;18.80;82.00;;;;;;4942103;28;22513;-64
2021/08/28 09:10:46;;;;;;;9.60;1.98;;;18.70;82.50;;;;;;4957642;28;20043;-68
2021/08/28 09:13:18;;;;;;;6.40;2.05;;;18.80;82.80;;;;;;4948550;28;20054;-68
2021/08/28 09:16:01;;;;;;;7.35;2.03;;;18.80;83.30;;;;;;4948330;28;20397;-65
2021/08/28 09:18:29;;;;;;;8.30;1.92;;;18.80;83.30;;;;;;4945537;28;20059;-66
2021/08/28 09:20:58;;;;;;;4.97;1.58;;;18.80;82.60;;;;;;4957822;28;20043;-66
2021/08/28 09:23:24;;;;;;;6.18;1.60;;;18.70;82.50;;;;;;4943965;28;20046;-65
2021/08/28 09:25:53;;;;;;;4.43;1.42;;;18.60;83.20;;;;;;4926279;28;20410;-67
2021/08/28 09:28:32;;;;;;;9.23;1.90;;;18.50;83.40;;;;;;4942774;28;20092;-67
2021/08/28 09:31:01;;;;;;;6.82;1.40;;;18.50;83.20;;;;;;4948517;28;20066;-66
2021/08/28 09:33:34;;;;;;;5.38;2.00;;;18.50;83.40;;;;;;4943166;28;20031;-66
2021/08/28 09:36:00;;;;;;;;;;;18.40;83.50;;;;;;4924886;29;20058;-66
2021/08/28 09:38:26;;;;;;;5.78;1.50;;;18.30;83.10;;;;;;4939928;29;19929;-66
2021/08/28 09:40:58;;;;;;;5.53;2.00;;;18.30;84.10;;;;;;4944338;29;20635;-66
2021/08/28 09:43:26;;;;;;;8.30;1.70;;;18.30;83.80;;;;;;4938971;29;20459;-67
2021/08/28 09:45:54;;;;;;;5.85;1.90;;;18.30;84.10;;;;;;4938186;28;20062;-69
2021/08/28 09:48:26;;;;;;;6.43;1.90;;;18.30;84.70;;;;;;4938780;29;20516;-64
2021/08/28 09:50:54;;;;;;;10.52;1.58;;;18.40;85.10;;;;;;4927843;29;20040;-66
2021/08/28 09:53:27;;;;;;;6.88;1.42;;;18.40;84.90;;;;;;4942733;29;20044;-67
2021/08/28 09:55:58;;;;;;;7.32;2.10;;;18.50;84.00;;;;;;4922392;29;20039;-65
2021/08/28 09:58:25;;;;;;;5.07;1.75;;;18.60;83.20;;;;;;4944682;29;20043;-67
2021/08/28 10:00:51;;;;;;;6.50;1.67;;;18.60;82.80;;;;;;4928330;29;20047;-68
2021/08/28 10:03:18;;;;;;;5.25;1.60;;;18.60;82.60;;;;;;4939316;29;20085;-64
2021/08/28 10:05:47;;;;;;;6.95;1.30;;;18.70;82.70;;;;;;4937695;29;20134;-66
2021/08/28 10:08:15;;;;;;;5.82;1.63;;;18.70;83.00;;;;;;4937953;29;22306;-66
2021/08/28 10:10:41;;;;;;;5.65;1.67;;;18.60;83.20;;;;;;4922884;29;20047;-66
2021/08/28 10:13:07;;;;;;;7.82;1.27;;;18.60;83.10;;;;;;4943026;28;20059;-66
2021/08/28 10:15:35;;;;;;;7.13;1.50;;;18.50;83.80;;;;;;4939024;29;20071;-66
2021/08/28 10:18:04;;;;;;;8.52;1.70;;;18.50;83.30;;;;;;4939325;29;20047;-66
2021/08/28 10:20:30;;;;;;;5.18;1.30;;;18.40;83.00;;;;;;4938210;29;20125;-74
2021/08/28 10:23:00;;;;;;;8.98;1.50;;;18.40;82.30;;;;;;4944580;29;20130;-74
2021/08/28 10:25:28;;;;;;;10.23;1.52;;;18.30;82.30;;;;;;4939387;29;20070;-74
2021/08/28 10:27:55;;;;;;;7.95;1.65;;;18.30;82.60;;;;;;4939997;29;20074;-74
2021/08/28 10:30:24;;;;;;;6.82;1.98;;;18.20;83.00;;;;;;4940065;28;20051;-75
2021/08/28 10:32:51;;;;;;;6.65;2.08;;;18.20;83.20;;;;;;4938592;29;20532;-74
2021/08/28 10:35:19;;;;;;;9.75;2.35;;;18.30;83.50;;;;;;4940542;29;20055;-74
2021/08/28 10:37:45;;;;;;;10.38;2.67;;;18.30;83.70;;;;;;4957514;28;20046;-73
2021/08/28 10:40:23;;;;;;;12.05;1.95;;;18.20;83.60;;;;;;4939906;28;20046;-74
2021/08/28 10:42:53;;;;;;;9.40;1.98;;;18.20;83.80;;;;;;4948582;29;20099;-74
2021/08/28 10:45:40;;;;;;;7.25;1.67;;;18.20;84.00;;;;;;4945624;29;20053;-74
2021/08/28 10:48:08;;;;;;;6.50;1.90;;;18.20;83.30;;;;;;4948707;29;20662;-74
2021/08/28 10:50:37;;;;;;;7.90;1.90;;;18.20;82.90;;;;;;4948748;28;20126;-74
2021/08/28 10:53:04;;;;;;;4.05;1.00;;;18.30;83.30;;;;;;4945299;29;20947;-74
2021/08/28 10:55:44;;;;;;;6.25;1.55;;;18.30;83.50;;;;;;4943128;29;20531;-72
2021/08/28 10:58:20;;;;;;;8.50;1.85;;;18.40;83.80;;;;;;4932784;29;20444;-74
2021/08/28 11:00:54;;;;;;;4.50;1.50;;;18.50;83.00;;;;;;4925785;29;20117;-74
2021/08/28 11:03:32;;;;;;;4.97;0.98;;;18.50;82.60;;;;;;4926190;29;20054;-74
2021/08/28 11:06:16;;;;;;;9.65;1.45;;;18.50;82.60;;;;;;4945531;29;20118;-74
2021/08/28 11:08:57;;;;;;;8.98;1.75;;;18.50;81.80;;;;;;4943166;29;20047;-74
2021/08/28 11:11:29;;;;;;;10.70;1.83;;;18.50;81.70;;;;;;4942986;29;20059;-74
2021/08/28 11:13:56;;;;;;;5.63;1.30;;;18.50;81.80;;;;;;4947355;29;20048;-74
2021/08/28 11:16:52;;;;;;;6.65;1.30;;;18.50;81.70;;;;;;4940550;29;20075;-73
2021/08/28 11:19:23;;;;;;;6.88;1.60;;;18.40;81.60;;;;;;4935885;29;20395;-74
2021/08/28 11:21:50;;;;;;;10.38;1.40;;;18.40;81.80;;;;;;4943621;29;20047;-74
2021/08/28 11:24:21;;;;;;;10.57;1.70;;;18.40;82.50;;;;;;4926837;29;20039;-74
2021/08/28 11:26:49;;;;;;;6.10;1.20;;;18.40;82.50;;;;;;4931841;29;20453;-74
2021/08/28 11:29:20;;;;;;;5.55;1.60;;;18.40;82.70;;;;;;4946378;29;20687;-65
2021/08/28 11:32:11;;;;;;;5.43;1.65;;;18.50;83.10;;;;;;4945522;28;20055;-65
2021/08/28 11:34:55;;;;;;;5.40;1.30;;;18.50;83.00;;;;;;4932328;28;20047;-65
2021/08/28 11:37:34;;;;;;;4.03;1.50;;;18.60;82.70;;;;;;4949729;28;20126;-64
2021/08/28 11:40:27;;;;;;;5.22;1.42;;;18.60;82.80;;;;;;4933915;28;20077;-66
2021/08/28 11:42:53;;;;;;;5.15;1.52;;;18.50;82.50;;;;;;4949349;28;20050;-65
2021/08/28 11:45:26;;;;;;;7.38;1.48;;;18.40;82.90;;;;;;4963798;28;20045;-65
2021/08/28 11:47:52;;;;;;;8.95;1.60;;;18.40;82.80;;;;;;4944869;28;20066;-64
2021/08/28 11:50:18;;;;;;;5.60;1.05;;;18.40;82.70;;;;;;4949212;28;20185;-64
2021/08/28 11:52:44;;;;;;;4.53;1.38;;;18.30;82.70;;;;;;4962405;28;20038;-65
2021/08/28 11:55:10;;;;;;;9.43;1.73;;;18.40;83.20;;;;;;4949000;28;20559;-64
2021/08/28 11:57:37;;;;;;;6.55;1.27;;;18.40;82.90;;;;;;4949971;28;20043;-64
2021/08/28 12:00:07;;;;;;;3.67;1.20;;;18.40;83.30;;;;;;4930557;28;20046;-63
2021/08/28 12:02:33;;;;;;;5.45;1.17;;;18.30;82.80;;;;;;4945509;28;20047;-65
2021/08/28 12:05:13;;;;;;;6.45;1.33;;;18.30;82.80;;;;;;4957001;28;20093;-66
2021/08/28 12:07:39;;;;;;;5.32;1.17;;;18.30;82.60;;;;;;4929596;28;20133;-66
2021/08/28 12:10:06;;;;;;;7.10;2.15;;;18.30;83.00;;;;;;4927136;28;20043;-66
2021/08/28 12:12:32;;;;;;;11.32;1.98;;;18.20;83.50;;;;;;4942938;28;20047;-66
2021/08/28 12:15:05;;;;;;;6.72;1.20;;;18.20;83.50;;;;;;4931762;28;20045;-66
2021/08/28 12:17:31;;;;;;;8.52;1.40;;;18.30;82.80;;;;;;4942965;28;20038;-66
2021/08/28 12:20:03;;;;;;;6.18;1.60;;;18.30;82.70;;;;;;4943422;28;20561;-65
2021/08/28 12:22:28;;;;;;;6.15;1.42;;;18.30;82.90;;;;;;4943088;28;20043;-66
2021/08/28 12:24:54;;;;;;;7.18;1.20;;;18.30;83.50;;;;;;4948920;28;20046;-66
2021/08/28 12:27:22;;;;;;;7.60;1.50;;;18.30;83.10;;;;;;4948780;28;20046;-66
2021/08/28 12:29:52;;;;;;;6.80;1.23;;;18.40;83.00;;;;;;4948860;28;20248;-66
2021/08/28 12:32:19;;;;;;;4.57;1.42;;;18.30;82.60;;;;;;4927663;28;20039;-62
2021/08/28 12:34:47;;;;;;;5.88;1.35;;;18.30;82.90;;;;;;4943391;28;20130;-64
2021/08/28 12:37:15;;;;;;;7.00;1.23;;;18.40;82.20;;;;;;4943173;28;20049;-63
2021/08/28 12:39:47;;;;;;;6.28;1.52;;;18.30;82.30;;;;;;4943473;28;20129;-65
2021/08/28 12:42:18;;;;;;;3.30;0.93;;;18.30;82.80;;;;;;4942320;28;20094;-63
2021/08/28 12:44:49;;;;;;;5.60;1.35;;;18.30;82.70;;;;;;4927459;28;20476;-63
2021/08/28 12:47:17;;;;;;;3.70;1.23;;;18.20;82.30;;;;;;4927916;28;20039;-63